createdAt,value
2018-04-24T00:01:41.273Z,87.50
2018-04-24T00:04:08.963Z,87.40
2018-04-24T00:06:36.490Z,87.40
2018-04-24T00:09:05.597Z,87.60
2018-04-24T00:11:33.920Z,87.80
2018-04-24T00:14:01.454Z,87.80
2018-04-24T00:16:29.762Z,88.10
2018-04-24T00:18:58.037Z,88.20
2018-04-24T00:21:26.345Z,88.20
2018-04-24T00:23:53.869Z,88.20
2018-04-24T00:26:21.396Z,88.40
2018-04-24T00:28:48.912Z,88.40
2018-04-24T00:31:16.447Z,88.90
2018-04-24T00:33:43.956Z,88.90
2018-04-24T00:36:11.465Z,89.10
2018-04-24T00:38:39.765Z,89.70
2018-04-24T00:41:07.281Z,89.70
2018-04-24T00:43:34.830Z,89.90
2018-04-24T00:46:02.350Z,90.10
2018-04-24T00:48:29.878Z,90.10
2018-04-24T00:50:57.395Z,90.20
2018-04-24T00:53:37.444Z,90.40
2018-04-24T00:56:04.958Z,90.40
2018-04-24T00:58:32.501Z,90.60
2018-04-24T01:01:00.788Z,90.50
2018-04-24T01:03:28.389Z,90.50
2018-04-24T01:05:55.855Z,90.60
2018-04-24T01:08:24.155Z,90.80
2018-04-24T01:10:51.690Z,90.80
2018-04-24T01:13:19.224Z,91.00
2018-04-24T01:15:46.741Z,91.00
2018-04-24T01:18:14.278Z,91.00
2018-04-24T01:20:41.788Z,90.90
2018-04-24T01:23:09.337Z,91.00
2018-04-24T01:25:36.842Z,91.00
2018-04-24T01:28:05.136Z,91.00
2018-04-24T01:30:33.409Z,91.00
2018-04-24T01:33:01.727Z,91.10
2018-04-24T01:35:29.248Z,91.10
2018-04-24T01:37:56.782Z,91.30
2018-04-24T01:40:24.285Z,91.40
2018-04-24T01:42:51.813Z,91.70
2018-04-24T01:45:19.318Z,91.80
2018-04-24T01:47:47.635Z,92.00
2018-04-24T01:50:15.148Z,92.00
2018-04-24T01:52:42.652Z,92.10
2018-04-24T01:55:10.193Z,92.20
2018-04-24T01:57:37.747Z,92.30
2018-04-24T02:00:06.057Z,92.40
2018-04-24T02:02:33.562Z,92.30
2018-04-24T02:05:01.094Z,92.30
2018-04-24T02:07:28.606Z,92.30
2018-04-24T02:09:56.141Z,92.40
2018-04-24T02:12:23.664Z,92.20
2018-04-24T02:14:51.205Z,92.10
2018-04-24T02:17:18.735Z,92.00
2018-04-24T02:19:47.064Z,92.00
2018-04-24T02:22:14.583Z,92.00
2018-04-24T02:24:42.117Z,92.00
2018-04-24T02:27:09.647Z,92.10
2018-04-24T02:29:37.195Z,91.80
2018-04-24T02:32:04.705Z,91.80
2018-04-24T02:34:32.229Z,91.70
2018-04-24T02:36:59.740Z,91.60
2018-04-24T02:39:27.319Z,91.60
2018-04-24T02:41:54.834Z,91.60
2018-04-24T02:44:22.362Z,91.60
2018-04-24T02:46:49.870Z,91.80
2018-04-24T02:49:17.401Z,92.00
2018-04-24T02:51:44.923Z,92.20
2018-04-24T02:54:12.445Z,92.30
2018-04-24T02:56:39.961Z,92.40
2018-04-24T02:59:07.500Z,92.50
2018-04-24T03:01:35.016Z,92.70
2018-04-24T03:04:02.553Z,92.60
2018-04-24T03:06:30.088Z,93.00
2018-04-24T03:08:57.624Z,92.80
2018-04-24T03:11:25.163Z,93.00
2018-04-24T03:13:52.672Z,93.00
2018-04-24T03:16:20.197Z,93.00
2018-04-24T03:18:47.716Z,92.90
2018-04-24T03:21:15.262Z,92.90
2018-04-24T03:23:42.785Z,93.10
2018-04-24T03:26:11.077Z,93.10
2018-04-24T03:28:39.368Z,93.00
2018-04-24T03:31:07.665Z,92.90
2018-04-24T03:33:35.168Z,92.90
2018-04-24T03:36:02.697Z,92.90
2018-04-24T03:38:30.970Z,93.10
2018-04-24T03:40:58.514Z,93.20
2018-04-24T03:43:26.781Z,93.50
2018-04-24T03:45:54.313Z,93.40
2018-04-24T03:48:22.603Z,93.80
2018-04-24T03:50:50.918Z,93.70
2018-04-24T03:53:18.432Z,93.70
2018-04-24T03:55:45.957Z,93.90
2018-04-24T03:58:13.474Z,93.80
2018-04-24T04:00:41.012Z,93.70
2018-04-24T04:03:08.536Z,93.60
2018-04-24T04:05:36.058Z,93.80
2018-04-24T04:08:03.592Z,93.70
2018-04-24T04:10:31.899Z,94.00
2018-04-24T04:12:59.419Z,93.90
2018-04-24T04:15:27.065Z,93.90
2018-04-24T04:18:06.309Z,93.90
2018-04-24T04:20:45.695Z,93.90
2018-04-24T04:23:25.614Z,93.90
2018-04-24T04:25:53.152Z,93.90
2018-04-24T04:28:21.445Z,93.80
2018-04-24T04:30:49.747Z,93.50
2018-04-24T04:33:18.154Z,93.90
2018-04-24T04:35:45.749Z,93.90
2018-04-24T04:38:13.300Z,93.60
2018-04-24T04:40:40.826Z,93.60
2018-04-24T04:43:08.368Z,93.60
2018-04-24T04:45:35.879Z,93.50
2018-04-24T04:48:03.412Z,93.40
2018-04-24T04:50:30.915Z,93.10
2018-04-24T04:52:58.452Z,92.80
2018-04-24T04:55:25.991Z,92.20
2018-04-24T04:57:53.525Z,91.90
2018-04-24T05:00:21.187Z,91.40
2018-04-24T05:02:48.751Z,91.10
2018-04-24T05:05:16.337Z,90.60
2018-04-24T05:07:43.836Z,90.10
2018-04-24T05:10:12.114Z,88.60
2018-04-24T05:12:39.643Z,88.60
2018-04-24T05:15:07.172Z,89.10
2018-04-24T05:17:35.470Z,88.70
2018-04-24T05:20:03.774Z,86.90
2018-04-24T05:22:31.316Z,86.90
2018-04-24T05:24:59.592Z,84.60
2018-04-24T05:27:27.116Z,84.50
2018-04-24T05:29:54.630Z,83.90
2018-04-24T05:32:22.157Z,83.30
2018-04-24T05:34:49.669Z,82.70
2018-04-24T05:37:17.209Z,82.70
2018-04-24T05:39:44.709Z,83.20
2018-04-24T05:42:12.228Z,83.20
2018-04-24T05:44:39.755Z,82.80
2018-04-24T05:47:07.288Z,82.30
2018-04-24T05:49:34.812Z,81.60
2018-04-24T05:52:02.357Z,81.30
2018-04-24T05:54:29.861Z,80.40
2018-04-24T05:56:58.168Z,80.40
2018-04-24T05:59:25.682Z,80.30
2018-04-24T06:01:53.218Z,79.90
2018-04-24T06:04:20.776Z,79.90
2018-04-24T06:06:49.049Z,79.90
2018-04-24T06:09:17.371Z,80.00
2018-04-24T06:11:44.877Z,80.00
2018-04-24T06:14:12.433Z,80.10
2018-04-24T06:16:39.958Z,79.60
2018-04-24T06:19:08.568Z,79.20
2018-04-24T06:21:36.855Z,78.90
2018-04-24T06:24:05.149Z,78.00
2018-04-24T06:26:32.666Z,78.00
2018-04-24T06:29:00.195Z,77.50
2018-04-24T06:31:28.487Z,76.80
2018-04-24T06:33:56.787Z,77.00
2018-04-24T06:36:24.317Z,77.00
2018-04-24T06:38:51.844Z,77.10
2018-04-24T06:41:19.367Z,76.80
2018-04-24T06:43:46.916Z,76.80
2018-04-24T06:46:14.425Z,75.90
2018-04-24T06:48:42.734Z,74.90
2018-04-24T06:51:10.254Z,74.90
2018-04-24T06:53:37.814Z,73.90
2018-04-24T06:56:05.336Z,72.90
2018-04-24T06:58:33.656Z,73.10
2018-04-24T07:01:01.188Z,73.10
2018-04-24T07:03:28.737Z,72.90
2018-04-24T07:05:56.243Z,73.10
2018-04-24T07:08:23.782Z,72.00
2018-04-24T07:10:51.285Z,69.40
2018-04-24T07:13:19.599Z,69.40
2018-04-24T07:15:47.113Z,69.30
2018-04-24T07:18:15.427Z,68.70
2018-04-24T07:20:43.733Z,68.60
2018-04-24T07:23:11.261Z,68.60
2018-04-24T07:25:38.803Z,68.10
2018-04-24T07:28:06.305Z,67.50
2018-04-24T07:30:33.838Z,67.40
2018-04-24T07:33:01.430Z,67.60
2018-04-24T07:35:29.672Z,67.60
2018-04-24T07:37:57.959Z,67.40
2018-04-24T07:40:26.253Z,66.40
2018-04-24T07:42:54.526Z,65.90
2018-04-24T07:45:22.888Z,67.00
2018-04-24T07:47:50.362Z,67.00
2018-04-24T07:50:17.915Z,66.90
2018-04-24T07:52:45.491Z,66.10
2018-04-24T07:55:13.043Z,65.60
2018-04-24T07:57:40.555Z,65.90
2018-04-24T08:00:08.151Z,64.50
2018-04-24T08:02:36.442Z,64.80
2018-04-24T08:05:03.987Z,64.80
2018-04-24T08:07:31.512Z,64.60
2018-04-24T08:09:59.049Z,64.20
2018-04-24T08:12:27.326Z,63.60
2018-04-24T08:14:54.873Z,63.60
2018-04-24T08:17:22.393Z,63.80
2018-04-24T08:19:50.698Z,65.50
2018-04-24T08:22:18.222Z,65.50
2018-04-24T08:24:45.766Z,65.70
2018-04-24T08:27:13.289Z,65.90
2018-04-24T08:29:41.578Z,65.40
2018-04-24T08:32:09.878Z,64.30
2018-04-24T08:34:38.150Z,64.00
2018-04-24T08:37:05.686Z,64.00
2018-04-24T08:39:33.203Z,63.50
2018-04-24T08:42:01.511Z,62.80
2018-04-24T08:44:29.038Z,62.70
2018-04-24T08:46:56.611Z,62.50
2018-04-24T08:49:24.921Z,63.80
2018-04-24T08:51:52.471Z,63.80
2018-04-24T08:54:19.997Z,64.90
2018-04-24T08:56:47.556Z,65.60
2018-04-24T08:59:15.082Z,64.80
2018-04-24T09:01:42.612Z,64.70
2018-04-24T09:04:10.117Z,64.60
2018-04-24T09:06:37.654Z,65.40
2018-04-24T09:09:06.940Z,64.40
2018-04-24T09:11:35.314Z,65.20
2018-04-24T09:14:02.947Z,65.20
2018-04-24T09:16:30.444Z,65.80
2018-04-24T09:18:57.978Z,65.40
2018-04-24T09:21:25.514Z,65.00
2018-04-24T09:23:53.030Z,63.40
2018-04-24T09:26:20.588Z,62.30
2018-04-24T09:28:48.104Z,62.90
2018-04-24T09:31:15.645Z,61.30
2018-04-24T09:33:43.238Z,61.60
2018-04-24T09:36:10.725Z,61.30
2018-04-24T09:38:38.350Z,60.70
2018-04-24T09:41:05.803Z,60.50
2018-04-24T09:43:34.104Z,60.60
2018-04-24T09:46:01.673Z,60.60
2018-04-24T09:48:29.987Z,59.20
2018-04-24T09:50:57.510Z,59.10
2018-04-24T09:53:25.828Z,59.00
2018-04-24T09:55:54.116Z,58.30
2018-04-24T09:58:21.659Z,58.30
2018-04-24T10:00:49.939Z,59.00
2018-04-24T10:03:18.342Z,58.90
2018-04-24T10:05:46.627Z,59.70
2018-04-24T10:08:14.186Z,59.60
2018-04-24T10:10:41.713Z,60.10
2018-04-24T10:13:09.299Z,59.50
2018-04-24T10:15:36.821Z,59.00
2018-04-24T10:18:05.133Z,57.90
2018-04-24T10:20:32.760Z,57.90
2018-04-24T10:23:01.823Z,58.80
2018-04-24T10:25:29.403Z,58.70
2018-04-24T10:27:56.979Z,60.40
2018-04-24T10:30:24.497Z,60.40
2018-04-24T10:32:52.053Z,60.10
2018-04-24T10:35:19.569Z,60.30
2018-04-24T10:37:47.868Z,60.00
2018-04-24T10:40:15.429Z,60.00
2018-04-24T10:42:42.959Z,60.70
2018-04-24T10:45:10.487Z,60.70
2018-04-24T10:47:39.152Z,61.20
2018-04-24T10:50:07.725Z,60.50
2018-04-24T10:52:35.251Z,60.50
2018-04-24T10:55:02.831Z,59.50
2018-04-24T10:57:31.130Z,60.60
2018-04-24T10:59:58.737Z,60.60
2018-04-24T11:02:26.283Z,59.50
2018-04-24T11:04:53.835Z,60.10
2018-04-24T11:07:21.364Z,59.70
2018-04-24T11:09:48.991Z,59.20
2018-04-24T11:12:16.510Z,59.90
2018-04-24T11:14:44.076Z,58.60
2018-04-24T11:17:12.401Z,59.50
2018-04-24T11:19:39.947Z,60.10
2018-04-24T11:22:07.472Z,58.90
2018-04-24T11:24:35.070Z,59.00
2018-04-24T11:27:02.639Z,58.80
2018-04-24T11:29:30.224Z,59.20
2018-04-24T11:31:57.754Z,58.70
2018-04-24T11:34:25.376Z,58.90
2018-04-24T11:36:52.853Z,59.30
2018-04-24T11:39:20.386Z,58.90
2018-04-24T11:41:47.902Z,59.70
2018-04-24T11:44:15.439Z,58.30
2018-04-24T11:46:42.983Z,58.60
2018-04-24T11:49:10.579Z,57.70
2018-04-24T11:51:38.121Z,58.20
2018-04-24T11:54:05.753Z,59.00
2018-04-24T11:56:33.350Z,59.00
2018-04-24T11:59:00.869Z,59.10
2018-04-24T12:01:28.404Z,58.80
2018-04-24T12:03:55.919Z,59.10
2018-04-24T12:06:23.549Z,59.00
2018-04-24T12:08:51.085Z,58.60
2018-04-24T12:11:18.647Z,58.60
2018-04-24T12:13:46.177Z,58.90
2018-04-24T12:16:13.721Z,57.90
2018-04-24T12:18:41.860Z,56.60
2018-04-24T12:21:09.418Z,56.30
2018-04-24T12:23:36.945Z,56.80
2018-04-24T12:26:04.507Z,56.60
2018-04-24T12:28:32.044Z,56.50
2018-04-24T12:30:59.613Z,56.60
2018-04-24T12:33:27.212Z,58.00
2018-04-24T12:35:54.761Z,57.60
2018-04-24T12:38:22.307Z,57.30
2018-04-24T12:40:49.858Z,57.60
2018-04-24T12:43:18.151Z,58.60
2018-04-24T12:45:46.538Z,58.80
2018-04-24T12:48:14.834Z,59.30
2018-04-24T12:50:43.169Z,58.80
2018-04-24T12:53:10.720Z,58.80
2018-04-24T12:55:38.285Z,58.80
2018-04-24T12:58:05.843Z,58.80
2018-04-24T13:00:33.395Z,59.10
2018-04-24T13:03:00.922Z,57.80
2018-04-24T13:05:28.458Z,57.90
2018-04-24T13:07:56.017Z,57.10
2018-04-24T13:10:23.597Z,57.70
2018-04-24T13:12:51.835Z,57.90
2018-04-24T13:15:19.346Z,58.10
2018-04-24T13:17:49.009Z,57.60
2018-04-24T13:20:16.556Z,57.60
2018-04-24T13:22:44.158Z,57.50
2018-04-24T13:25:11.678Z,57.30
2018-04-24T13:27:39.245Z,57.00
2018-04-24T13:30:06.788Z,57.30
2018-04-24T13:32:34.362Z,57.50
2018-04-24T13:35:01.928Z,57.30
2018-04-24T13:37:29.505Z,57.80
2018-04-24T13:39:57.460Z,57.40
2018-04-24T13:42:24.993Z,57.00
2018-04-24T13:44:52.546Z,56.90
2018-04-24T13:47:20.105Z,57.10
2018-04-24T13:49:47.659Z,57.10
2018-04-24T13:52:15.215Z,56.50
2018-04-24T13:54:42.770Z,57.40
2018-04-24T13:57:10.349Z,57.10
2018-04-24T13:59:37.900Z,57.30
2018-04-24T14:02:06.235Z,57.30
2018-04-24T14:04:33.795Z,57.00
2018-04-24T14:07:01.354Z,57.60
2018-04-24T14:09:28.918Z,56.90
2018-04-24T14:11:57.274Z,56.60
2018-04-24T14:14:24.859Z,56.50
2018-04-24T14:16:52.432Z,56.40
2018-04-24T14:19:19.989Z,55.90
2018-04-24T14:21:47.587Z,55.60
2018-04-24T14:24:15.125Z,55.40
2018-04-24T14:26:42.693Z,54.70
2018-04-24T14:29:10.278Z,53.70
2018-04-24T14:31:37.822Z,54.60
2018-04-24T14:34:05.386Z,54.50
2018-04-24T14:36:32.932Z,54.30
2018-04-24T14:39:01.291Z,53.90
2018-04-24T14:41:28.822Z,53.80
2018-04-24T14:43:56.382Z,54.40
2018-04-24T14:46:23.916Z,54.70
2018-04-24T14:48:51.467Z,54.60
2018-04-24T14:51:19.020Z,55.70
2018-04-24T14:53:46.586Z,55.70
2018-04-24T14:56:14.131Z,55.40
2018-04-24T14:58:42.470Z,55.50
2018-04-24T15:01:10.024Z,55.40
2018-04-24T15:03:38.905Z,55.60
2018-04-24T15:06:06.454Z,55.40
2018-04-24T15:08:34.772Z,56.00
2018-04-24T15:11:02.307Z,56.00
2018-04-24T15:13:29.887Z,55.90
2018-04-24T15:15:57.418Z,55.10
2018-04-24T15:18:24.986Z,55.80
2018-04-24T15:20:52.707Z,55.30
2018-04-24T15:23:21.031Z,55.40
2018-04-24T15:25:48.665Z,55.40
2018-04-24T15:28:16.309Z,55.90
2018-04-24T15:33:18.608Z,55.40
2018-04-24T15:35:46.167Z,55.30
2018-04-24T15:38:13.712Z,55.60
2018-04-24T15:40:42.080Z,55.50
2018-04-24T15:43:09.629Z,55.50
2018-04-24T15:45:37.241Z,55.30
2018-04-24T15:48:05.628Z,55.00
2018-04-24T15:50:33.112Z,54.80
2018-04-24T15:53:01.395Z,54.60
2018-04-24T15:55:29.727Z,54.50
2018-04-24T15:57:57.264Z,54.50
2018-04-24T16:00:25.585Z,54.30
2018-04-24T16:02:53.136Z,54.30
2018-04-24T16:05:20.693Z,53.80
2018-04-24T16:07:48.345Z,54.00
2018-04-24T16:10:15.912Z,53.70
2018-04-24T16:12:43.486Z,54.60
2018-04-24T16:15:11.070Z,54.50
2018-04-24T16:17:38.669Z,54.50
2018-04-24T16:20:06.252Z,55.10
2018-04-24T16:22:33.948Z,55.50
2018-04-24T16:25:01.505Z,55.10
2018-04-24T16:27:29.047Z,55.00
2018-04-24T16:29:57.438Z,54.80
2018-04-24T16:32:24.923Z,54.80
2018-04-24T16:34:53.242Z,56.10
2018-04-24T16:37:20.765Z,55.40
2018-04-24T16:39:49.082Z,56.10
2018-04-24T16:42:17.252Z,55.50
2018-04-24T16:44:45.613Z,55.50
2018-04-24T16:47:13.155Z,55.50
2018-04-24T16:49:40.746Z,55.30
2018-04-24T16:52:08.288Z,55.30
2018-04-24T16:54:35.896Z,55.20
2018-04-24T16:57:04.535Z,55.40
2018-04-24T16:59:32.135Z,55.40
2018-04-24T17:01:59.763Z,55.40
2018-04-24T17:04:28.123Z,54.90
2018-04-24T17:06:55.735Z,55.00
2018-04-24T17:09:24.106Z,55.40
2018-04-24T17:11:51.679Z,55.40
2018-04-24T17:14:19.232Z,55.60
2018-04-24T17:16:46.767Z,55.70
2018-04-24T17:19:14.332Z,55.90
2018-04-24T17:21:41.918Z,56.10
2018-04-24T17:24:09.489Z,56.00
2018-04-24T17:26:37.084Z,56.20
2018-04-24T17:29:04.628Z,56.40
2018-04-24T17:31:32.191Z,57.00
2018-04-24T17:33:59.761Z,57.00
2018-04-24T17:36:28.088Z,57.40
2018-04-24T17:38:55.682Z,57.30
2018-04-24T17:41:23.336Z,57.20
2018-04-24T17:43:50.893Z,57.50
2018-04-24T17:46:18.458Z,57.40
2018-04-24T17:48:46.064Z,58.00
2018-04-24T17:51:13.648Z,58.20
2018-04-24T17:53:41.307Z,58.50
2018-04-24T17:56:08.903Z,58.40
2018-04-24T17:58:36.656Z,58.40
2018-04-24T18:01:04.250Z,58.70
2018-04-24T18:03:32.833Z,59.40
2018-04-24T18:06:00.387Z,58.90
2018-04-24T18:08:28.001Z,59.00
2018-04-24T18:10:55.578Z,59.20
2018-04-24T18:13:23.151Z,59.60
2018-04-24T18:15:50.715Z,59.70
2018-04-24T18:18:18.287Z,59.80
2018-04-24T18:20:45.853Z,59.80
2018-04-24T18:23:14.234Z,60.40
2018-04-24T18:25:41.759Z,60.40
2018-04-24T18:28:10.112Z,60.80
2018-04-24T18:30:37.675Z,60.80
2018-04-24T18:33:08.790Z,60.90
2018-04-24T18:35:36.324Z,61.00
2018-04-24T18:38:03.893Z,60.90
2018-04-24T18:40:31.480Z,61.10
2018-04-24T18:42:59.823Z,61.40
2018-04-24T18:45:27.359Z,61.30
2018-04-24T18:47:55.714Z,61.70
2018-04-24T18:50:23.272Z,61.70
2018-04-24T18:52:50.977Z,62.10
2018-04-24T18:55:19.456Z,62.10
2018-04-24T18:57:47.020Z,62.50
2018-04-24T19:00:14.583Z,62.90
2018-04-24T19:02:42.153Z,62.60
2018-04-24T19:05:09.683Z,62.60
2018-04-24T19:07:37.985Z,63.00
2018-04-24T19:10:05.559Z,62.90
2018-04-24T19:12:33.093Z,63.10
2018-04-24T19:15:00.683Z,63.20
2018-04-24T19:17:28.983Z,63.70
2018-04-24T19:19:56.540Z,63.70
2018-04-24T19:22:24.828Z,65.10
2018-04-24T19:24:58.080Z,65.00
2018-04-24T19:27:33.210Z,64.90
2018-04-24T19:30:00.800Z,64.90
2018-04-24T19:32:31.343Z,64.90
2018-04-24T19:34:58.913Z,65.40
2018-04-24T19:37:26.450Z,65.70
2018-04-24T19:39:59.541Z,65.40
2018-04-24T19:42:27.059Z,64.80
2018-04-24T19:44:54.612Z,65.20
2018-04-24T19:47:22.146Z,65.60
2018-04-24T19:49:55.294Z,65.70
2018-04-24T19:52:22.818Z,66.10
2018-04-24T19:54:56.051Z,66.20
2018-04-24T19:57:24.338Z,66.60
2018-04-24T19:59:52.651Z,66.90
2018-04-24T20:02:20.168Z,66.90
2018-04-24T20:04:48.510Z,67.20
2018-04-24T20:07:16.023Z,67.50
2018-04-24T20:09:43.569Z,67.50
2018-04-24T20:12:11.082Z,67.60
2018-04-24T20:14:38.641Z,67.90
2018-04-24T20:17:07.149Z,68.30
2018-04-24T20:19:34.696Z,68.10
2018-04-24T20:22:03.512Z,68.30
2018-04-24T20:24:32.066Z,68.50
2018-04-24T20:26:59.647Z,68.60
2018-04-24T20:29:28.859Z,68.90
2018-04-24T20:31:56.367Z,69.00
2018-04-24T20:34:23.939Z,69.20
2018-04-24T20:36:51.488Z,69.20
2018-04-24T20:39:18.997Z,69.40
2018-04-24T20:41:46.555Z,69.60
2018-04-24T20:44:14.057Z,69.80
2018-04-24T20:46:42.414Z,70.10
2018-04-24T20:49:09.923Z,70.00
2018-04-24T20:51:37.467Z,70.00
2018-04-24T20:54:04.979Z,69.90
2018-04-24T20:56:32.508Z,69.70
2018-04-24T20:59:00.022Z,70.30
2018-04-24T21:01:27.686Z,70.60
2018-04-24T21:03:55.612Z,70.50
2018-04-24T21:06:23.948Z,70.20
2018-04-24T21:08:53.255Z,70.30
2018-04-24T21:11:21.584Z,70.70
2018-04-24T21:13:49.113Z,70.70
2018-04-24T21:16:16.645Z,70.90
2018-04-24T21:18:44.166Z,71.70
2018-04-24T21:21:12.467Z,71.40
2018-04-24T21:23:40.749Z,71.60
2018-04-24T21:26:09.050Z,71.60
2018-04-24T21:28:36.575Z,71.50
2018-04-24T21:31:04.900Z,71.60
2018-04-24T21:33:33.174Z,71.90
2018-04-24T21:36:00.711Z,71.90
2018-04-24T21:38:28.235Z,72.50
2018-04-24T21:40:56.701Z,72.60
2018-04-24T21:43:24.322Z,72.50
2018-04-24T21:45:51.894Z,72.50
2018-04-24T21:48:20.365Z,72.30
2018-04-24T21:50:48.638Z,72.70
2018-04-24T21:53:16.213Z,72.70
2018-04-24T21:55:43.719Z,72.70
2018-04-24T21:58:11.310Z,73.50
2018-04-24T22:00:38.874Z,73.60
2018-04-24T22:03:06.433Z,74.30
2018-04-24T22:05:33.940Z,74.70
2018-04-24T22:08:03.823Z,75.20
2018-04-24T22:10:31.367Z,75.30
2018-04-24T22:12:58.931Z,75.70
2018-04-24T22:15:26.746Z,75.70
2018-04-24T22:17:54.290Z,76.00
2018-04-24T22:20:21.855Z,76.50
2018-04-24T22:22:49.388Z,76.40
2018-04-24T22:25:17.456Z,75.90
2018-04-24T22:27:44.981Z,76.30
2018-04-24T22:30:12.495Z,75.90
2018-04-24T22:32:40.022Z,75.70
2018-04-24T22:35:07.545Z,76.00
2018-04-24T22:37:35.112Z,76.20
2018-04-24T22:40:02.628Z,76.40
2018-04-24T22:42:30.930Z,76.90
2018-04-24T22:44:58.454Z,76.90
2018-04-24T22:47:26.335Z,77.20
2018-04-24T22:49:53.847Z,77.50
2018-04-24T22:52:21.375Z,77.40
2018-04-24T22:54:48.928Z,77.40
2018-04-24T22:57:17.203Z,77.70
2018-04-24T22:59:44.786Z,77.70
2018-04-24T23:02:13.061Z,77.40
2018-04-24T23:04:40.601Z,77.40
2018-04-24T23:07:08.146Z,78.10
2018-04-24T23:09:35.706Z,78.00
2018-04-24T23:12:15.236Z,78.00
2018-04-24T23:14:55.426Z,78.30
2018-04-24T23:17:34.869Z,78.00
2018-04-24T23:20:15.019Z,78.30
2018-04-24T23:22:42.570Z,78.30
2018-04-24T23:25:11.041Z,79.20
2018-04-24T23:27:38.699Z,77.90
2018-04-24T23:30:06.258Z,77.80
2018-04-24T23:32:33.783Z,76.70
2018-04-24T23:35:01.329Z,76.80
2018-04-24T23:37:28.850Z,76.50
2018-04-24T23:39:57.160Z,76.40
2018-04-24T23:42:25.430Z,76.10
2018-04-24T23:44:52.961Z,76.20
2018-04-24T23:47:20.486Z,76.50
2018-04-24T23:49:48.783Z,75.90
2018-04-24T23:52:17.079Z,75.90
2018-04-24T23:54:44.605Z,75.90
2018-04-24T23:57:12.124Z,76.10
2018-04-24T23:59:39.657Z,76.10
